sensor_id;sensor_type;location;lat;lon;timestamp;P1;durP1;ratioP1;P2;durP2;ratioP2
59880;SDS011;45751;51.380;10.326;2023-04-30T00:02:22;15.77;;;8.07;;
59880;SDS011;45751;51.380;10.326;2023-04-30T00:04:49;18.13;;;6.80;;
59880;SDS011;45751;51.380;10.326;2023-04-30T00:07:17;13.23;;;5.85;;
59880;SDS011;45751;51.380;10.326;2023-04-30T00:09:44;17.38;;;6.65;;
59880;SDS011;45751;51.380;10.326;2023-04-30T00:12:11;13.80;;;6.70;;
59880;SDS011;45751;51.380;10.326;2023-04-30T00:14:38;13.88;;;6.13;;
59880;SDS011;45751;51.380;10.326;2023-04-30T00:17:05;12.07;;;6.05;;
59880;SDS011;45751;51.380;10.326;2023-04-30T00:19:32;16.95;;;7.20;;
59880;SDS011;45751;51.380;10.326;2023-04-30T00:21:58;13.73;;;5.93;;
59880;SDS011;45751;51.380;10.326;2023-04-30T00:24:27;12.95;;;5.13;;
59880;SDS011;45751;51.380;10.326;2023-04-30T00:26:54;13.18;;;5.70;;
59880;SDS011;45751;51.380;10.326;2023-04-30T00:29:21;18.35;;;5.78;;
59880;SDS011;45751;51.380;10.326;2023-04-30T00:31:47;20.42;;;6.07;;
59880;SDS011;45751;51.380;10.326;2023-04-30T00:34:14;15.45;;;5.20;;
59880;SDS011;45751;51.380;10.326;2023-04-30T00:36:41;11.85;;;4.97;;
59880;SDS011;45751;51.380;10.326;2023-04-30T00:39:08;13.25;;;5.28;;
59880;SDS011;45751;51.380;10.326;2023-04-30T00:41:35;14.68;;;5.43;;
59880;SDS011;45751;51.380;10.326;2023-04-30T00:44:03;12.75;;;5.53;;
59880;SDS011;45751;51.380;10.326;2023-04-30T00:46:31;14.80;;;5.70;;
59880;SDS011;45751;51.380;10.326;2023-04-30T00:48:58;12.90;;;5.65;;
59880;SDS011;45751;51.380;10.326;2023-04-30T00:51:33;13.82;;;4.97;;
59880;SDS011;45751;51.380;10.326;2023-04-30T00:54:01;15.02;;;5.57;;
59880;SDS011;45751;51.380;10.326;2023-04-30T00:56:28;12.10;;;5.25;;
59880;SDS011;45751;51.380;10.326;2023-04-30T00:58:56;12.77;;;6.10;;
59880;SDS011;45751;51.380;10.326;2023-04-30T01:01:25;14.52;;;5.85;;
59880;SDS011;45751;51.380;10.326;2023-04-30T01:03:54;11.38;;;5.20;;
59880;SDS011;45751;51.380;10.326;2023-04-30T01:06:22;16.92;;;6.35;;
59880;SDS011;45751;51.380;10.326;2023-04-30T01:08:52;14.55;;;5.65;;
59880;SDS011;45751;51.380;10.326;2023-04-30T01:11:42;14.25;;;6.03;;
59880;SDS011;45751;51.380;10.326;2023-04-30T01:14:32;12.20;;;5.35;;
59880;SDS011;45751;51.380;10.326;2023-04-30T01:17:27;12.05;;;5.00;;
59880;SDS011;45751;51.380;10.326;2023-04-30T01:19:59;11.93;;;4.47;;
59880;SDS011;45751;51.380;10.326;2023-04-30T01:22:30;12.07;;;4.43;;
59880;SDS011;45751;51.380;10.326;2023-04-30T01:28:14;15.77;;;4.72;;
59880;SDS011;45751;51.380;10.326;2023-04-30T01:30:43;13.07;;;4.63;;
59880;SDS011;45751;51.380;10.326;2023-04-30T01:33:13;12.15;;;3.70;;
59880;SDS011;45751;51.380;10.326;2023-04-30T01:35:47;11.17;;;4.70;;
59880;SDS011;45751;51.380;10.326;2023-04-30T01:52:12;14.77;;;4.35;;
59880;SDS011;45751;51.380;10.326;2023-04-30T01:54:44;13.68;;;5.43;;
59880;SDS011;45751;51.380;10.326;2023-04-30T01:57:28;11.27;;;5.10;;
59880;SDS011;45751;51.380;10.326;2023-04-30T02:02:26;10.00;;;4.40;;
59880;SDS011;45751;51.380;10.326;2023-04-30T02:04:53;11.80;;;4.88;;
59880;SDS011;45751;51.380;10.326;2023-04-30T02:07:35;10.85;;;4.63;;
59880;SDS011;45751;51.380;10.326;2023-04-30T02:10:07;12.10;;;5.05;;
59880;SDS011;45751;51.380;10.326;2023-04-30T02:12:35;11.18;;;4.45;;
59880;SDS011;45751;51.380;10.326;2023-04-30T02:15:02;12.65;;;4.22;;
59880;SDS011;45751;51.380;10.326;2023-04-30T02:17:30;10.07;;;4.80;;
59880;SDS011;45751;51.380;10.326;2023-04-30T02:19:58;11.20;;;3.97;;
59880;SDS011;45751;51.380;10.326;2023-04-30T02:22:25;12.02;;;4.40;;
59880;SDS011;45751;51.380;10.326;2023-04-30T02:24:52;14.90;;;5.40;;
59880;SDS011;45751;51.380;10.326;2023-04-30T02:27:23;14.15;;;5.43;;
59880;SDS011;45751;51.380;10.326;2023-04-30T02:29:51;14.68;;;4.97;;
59880;SDS011;45751;51.380;10.326;2023-04-30T02:32:19;9.98;;;4.07;;
59880;SDS011;45751;51.380;10.326;2023-04-30T02:34:46;11.80;;;3.78;;
59880;SDS011;45751;51.380;10.326;2023-04-30T02:37:13;12.32;;;4.65;;
59880;SDS011;45751;51.380;10.326;2023-04-30T02:39:40;9.68;;;4.05;;
59880;SDS011;45751;51.380;10.326;2023-04-30T02:42:07;8.13;;;3.50;;
59880;SDS011;45751;51.380;10.326;2023-04-30T02:44:34;9.52;;;4.63;;
59880;SDS011;45751;51.380;10.326;2023-04-30T02:47:02;15.68;;;4.05;;
59880;SDS011;45751;51.380;10.326;2023-04-30T02:49:29;15.23;;;4.40;;
59880;SDS011;45751;51.380;10.326;2023-04-30T02:51:56;8.02;;;3.38;;
59880;SDS011;45751;51.380;10.326;2023-04-30T02:54:23;10.43;;;3.90;;
59880;SDS011;45751;51.380;10.326;2023-04-30T02:56:50;19.05;;;5.07;;
59880;SDS011;45751;51.380;10.326;2023-04-30T02:59:18;7.47;;;3.63;;
59880;SDS011;45751;51.380;10.326;2023-04-30T03:01:45;12.57;;;5.72;;
59880;SDS011;45751;51.380;10.326;2023-04-30T03:04:12;10.55;;;3.63;;
59880;SDS011;45751;51.380;10.326;2023-04-30T03:06:39;14.35;;;4.30;;
59880;SDS011;45751;51.380;10.326;2023-04-30T03:09:06;7.93;;;3.80;;
59880;SDS011;45751;51.380;10.326;2023-04-30T03:11:33;11.00;;;3.83;;
59880;SDS011;45751;51.380;10.326;2023-04-30T03:14:03;12.10;;;4.50;;
59880;SDS011;45751;51.380;10.326;2023-04-30T03:16:33;10.07;;;3.60;;
59880;SDS011;45751;51.380;10.326;2023-04-30T03:18:59;11.20;;;4.03;;
59880;SDS011;45751;51.380;10.326;2023-04-30T03:21:26;11.13;;;3.90;;
59880;SDS011;45751;51.380;10.326;2023-04-30T03:23:53;10.00;;;4.22;;
59880;SDS011;45751;51.380;10.326;2023-04-30T03:26:20;8.90;;;4.68;;
59880;SDS011;45751;51.380;10.326;2023-04-30T03:28:47;11.65;;;4.03;;
59880;SDS011;45751;51.380;10.326;2023-04-30T03:31:14;14.77;;;4.10;;
59880;SDS011;45751;51.380;10.326;2023-04-30T03:33:41;20.20;;;4.35;;
59880;SDS011;45751;51.380;10.326;2023-04-30T03:36:08;10.48;;;4.45;;
59880;SDS011;45751;51.380;10.326;2023-04-30T03:38:35;11.85;;;4.32;;
59880;SDS011;45751;51.380;10.326;2023-04-30T03:41:02;9.85;;;4.32;;
59880;SDS011;45751;51.380;10.326;2023-04-30T03:43:29;15.48;;;4.22;;
59880;SDS011;45751;51.380;10.326;2023-04-30T03:45:56;9.75;;;4.25;;
59880;SDS011;45751;51.380;10.326;2023-04-30T03:48:23;8.55;;;3.88;;
59880;SDS011;45751;51.380;10.326;2023-04-30T03:50:51;15.70;;;4.38;;
59880;SDS011;45751;51.380;10.326;2023-04-30T03:53:17;9.80;;;3.83;;
59880;SDS011;45751;51.380;10.326;2023-04-30T03:55:44;12.65;;;4.78;;
59880;SDS011;45751;51.380;10.326;2023-04-30T03:58:11;10.60;;;3.88;;
59880;SDS011;45751;51.380;10.326;2023-04-30T04:00:39;18.10;;;4.97;;
59880;SDS011;45751;51.380;10.326;2023-04-30T04:03:07;10.60;;;4.07;;
59880;SDS011;45751;51.380;10.326;2023-04-30T04:05:34;8.38;;;3.65;;
59880;SDS011;45751;51.380;10.326;2023-04-30T04:08:01;12.55;;;4.40;;
59880;SDS011;45751;51.380;10.326;2023-04-30T04:10:27;10.55;;;4.32;;
59880;SDS011;45751;51.380;10.326;2023-04-30T04:12:54;15.18;;;5.80;;
59880;SDS011;45751;51.380;10.326;2023-04-30T04:15:21;12.63;;;5.10;;
59880;SDS011;45751;51.380;10.326;2023-04-30T04:17:48;10.82;;;3.35;;
59880;SDS011;45751;51.380;10.326;2023-04-30T04:20:15;9.50;;;3.78;;
59880;SDS011;45751;51.380;10.326;2023-04-30T04:22:43;11.25;;;4.32;;
59880;SDS011;45751;51.380;10.326;2023-04-30T04:25:10;10.43;;;5.28;;
59880;SDS011;45751;51.380;10.326;2023-04-30T04:27:37;11.10;;;4.35;;
59880;SDS011;45751;51.380;10.326;2023-04-30T04:30:04;11.75;;;3.78;;
59880;SDS011;45751;51.380;10.326;2023-04-30T04:32:32;10.30;;;4.13;;
59880;SDS011;45751;51.380;10.326;2023-04-30T04:35:07;19.73;;;4.13;;
59880;SDS011;45751;51.380;10.326;2023-04-30T04:37:34;16.30;;;5.10;;
59880;SDS011;45751;51.380;10.326;2023-04-30T04:40:01;11.23;;;4.72;;
59880;SDS011;45751;51.380;10.326;2023-04-30T04:42:30;12.70;;;3.63;;
59880;SDS011;45751;51.380;10.326;2023-04-30T04:44:57;10.82;;;4.90;;
59880;SDS011;45751;51.380;10.326;2023-04-30T04:47:24;12.88;;;4.28;;
59880;SDS011;45751;51.380;10.326;2023-04-30T04:49:52;11.32;;;4.32;;
59880;SDS011;45751;51.380;10.326;2023-04-30T04:52:19;13.18;;;4.60;;
59880;SDS011;45751;51.380;10.326;2023-04-30T04:54:46;11.82;;;3.83;;
59880;SDS011;45751;51.380;10.326;2023-04-30T04:57:13;9.10;;;4.07;;
59880;SDS011;45751;51.380;10.326;2023-04-30T04:59:40;11.43;;;4.03;;
59880;SDS011;45751;51.380;10.326;2023-04-30T05:02:07;8.43;;;3.88;;
59880;SDS011;45751;51.380;10.326;2023-04-30T05:04:34;12.68;;;4.00;;
59880;SDS011;45751;51.380;10.326;2023-04-30T05:07:01;16.27;;;5.10;;
59880;SDS011;45751;51.380;10.326;2023-04-30T05:09:28;8.98;;;4.38;;
59880;SDS011;45751;51.380;10.326;2023-04-30T05:11:55;11.23;;;5.13;;
59880;SDS011;45751;51.380;10.326;2023-04-30T05:14:22;9.85;;;4.43;;
59880;SDS011;45751;51.380;10.326;2023-04-30T05:16:48;9.88;;;4.13;;
59880;SDS011;45751;51.380;10.326;2023-04-30T05:19:15;12.38;;;4.07;;
59880;SDS011;45751;51.380;10.326;2023-04-30T05:21:42;11.35;;;4.60;;
59880;SDS011;45751;51.380;10.326;2023-04-30T05:24:09;10.35;;;4.78;;
59880;SDS011;45751;51.380;10.326;2023-04-30T05:26:36;10.80;;;3.30;;
59880;SDS011;45751;51.380;10.326;2023-04-30T05:29:03;15.18;;;4.53;;
59880;SDS011;45751;51.380;10.326;2023-04-30T05:31:30;11.82;;;5.18;;
59880;SDS011;45751;51.380;10.326;2023-04-30T05:33:57;11.65;;;4.60;;
59880;SDS011;45751;51.380;10.326;2023-04-30T05:36:24;11.65;;;4.15;;
59880;SDS011;45751;51.380;10.326;2023-04-30T05:38:51;9.90;;;3.83;;
59880;SDS011;45751;51.380;10.326;2023-04-30T05:41:18;9.05;;;3.85;;
59880;SDS011;45751;51.380;10.326;2023-04-30T05:43:45;16.67;;;5.13;;
59880;SDS011;45751;51.380;10.326;2023-04-30T05:46:12;10.77;;;3.22;;
59880;SDS011;45751;51.380;10.326;2023-04-30T05:48:39;11.57;;;3.78;;
59880;SDS011;45751;51.380;10.326;2023-04-30T05:51:06;14.32;;;5.20;;
59880;SDS011;45751;51.380;10.326;2023-04-30T05:53:33;12.70;;;4.80;;
59880;SDS011;45751;51.380;10.326;2023-04-30T05:56:00;13.05;;;4.30;;
59880;SDS011;45751;51.380;10.326;2023-04-30T05:58:27;12.63;;;4.40;;
59880;SDS011;45751;51.380;10.326;2023-04-30T06:00:54;16.67;;;6.13;;
59880;SDS011;45751;51.380;10.326;2023-04-30T06:03:20;19.15;;;10.05;;
59880;SDS011;45751;51.380;10.326;2023-04-30T06:05:48;14.32;;;5.82;;
59880;SDS011;45751;51.380;10.326;2023-04-30T06:08:15;11.90;;;5.00;;
59880;SDS011;45751;51.380;10.326;2023-04-30T06:10:42;14.27;;;4.38;;
59880;SDS011;45751;51.380;10.326;2023-04-30T06:13:09;10.65;;;4.63;;
59880;SDS011;45751;51.380;10.326;2023-04-30T06:15:36;11.48;;;4.53;;
59880;SDS011;45751;51.380;10.326;2023-04-30T06:18:04;10.65;;;4.47;;
59880;SDS011;45751;51.380;10.326;2023-04-30T06:20:31;12.13;;;4.97;;
59880;SDS011;45751;51.380;10.326;2023-04-30T06:22:58;12.40;;;4.60;;
59880;SDS011;45751;51.380;10.326;2023-04-30T06:25:28;11.65;;;4.40;;
59880;SDS011;45751;51.380;10.326;2023-04-30T06:27:55;11.90;;;4.65;;
59880;SDS011;45751;51.380;10.326;2023-04-30T06:30:22;19.60;;;4.35;;
59880;SDS011;45751;51.380;10.326;2023-04-30T06:32:49;9.25;;;4.45;;
59880;SDS011;45751;51.380;10.326;2023-04-30T06:35:16;9.85;;;4.68;;
59880;SDS011;45751;51.380;10.326;2023-04-30T06:37:42;11.93;;;4.65;;
59880;SDS011;45751;51.380;10.326;2023-04-30T06:40:09;11.98;;;5.13;;
59880;SDS011;45751;51.380;10.326;2023-04-30T06:42:36;10.30;;;4.55;;
59880;SDS011;45751;51.380;10.326;2023-04-30T06:45:04;13.30;;;4.15;;
59880;SDS011;45751;51.380;10.326;2023-04-30T06:47:32;13.65;;;4.82;;
59880;SDS011;45751;51.380;10.326;2023-04-30T06:50:00;12.25;;;4.18;;
59880;SDS011;45751;51.380;10.326;2023-04-30T06:52:30;11.73;;;4.32;;
59880;SDS011;45751;51.380;10.326;2023-04-30T06:54:57;11.68;;;3.13;;
59880;SDS011;45751;51.380;10.326;2023-04-30T06:57:24;9.43;;;3.72;;
59880;SDS011;45751;51.380;10.326;2023-04-30T06:59:51;10.35;;;4.10;;
59880;SDS011;45751;51.380;10.326;2023-04-30T07:02:18;10.13;;;3.80;;
59880;SDS011;45751;51.380;10.326;2023-04-30T07:04:47;9.68;;;3.92;;
59880;SDS011;45751;51.380;10.326;2023-04-30T07:07:14;13.23;;;4.93;;
59880;SDS011;45751;51.380;10.326;2023-04-30T07:09:41;9.45;;;4.45;;
59880;SDS011;45751;51.380;10.326;2023-04-30T07:12:08;9.80;;;4.70;;
59880;SDS011;45751;51.380;10.326;2023-04-30T07:14:37;21.38;;;9.60;;
59880;SDS011;45751;51.380;10.326;2023-04-30T07:17:04;26.42;;;12.98;;
59880;SDS011;45751;51.380;10.326;2023-04-30T07:19:31;20.65;;;7.63;;
59880;SDS011;45751;51.380;10.326;2023-04-30T07:21:58;13.10;;;5.38;;
59880;SDS011;45751;51.380;10.326;2023-04-30T07:24:25;16.33;;;6.55;;
59880;SDS011;45751;51.380;10.326;2023-04-30T07:26:51;11.57;;;5.60;;
59880;SDS011;45751;51.380;10.326;2023-04-30T07:29:18;18.45;;;6.43;;
59880;SDS011;45751;51.380;10.326;2023-04-30T07:31:45;23.55;;;6.63;;
59880;SDS011;45751;51.380;10.326;2023-04-30T07:34:12;13.57;;;5.50;;
59880;SDS011;45751;51.380;10.326;2023-04-30T07:36:39;10.80;;;5.05;;
59880;SDS011;45751;51.380;10.326;2023-04-30T07:39:06;9.68;;;4.05;;
59880;SDS011;45751;51.380;10.326;2023-04-30T07:41:33;14.43;;;5.50;;
59880;SDS011;45751;51.380;10.326;2023-04-30T07:44:00;15.35;;;6.57;;
59880;SDS011;45751;51.380;10.326;2023-04-30T07:46:27;20.65;;;9.48;;
59880;SDS011;45751;51.380;10.326;2023-04-30T07:48:54;13.32;;;6.15;;
59880;SDS011;45751;51.380;10.326;2023-04-30T07:51:21;10.57;;;4.13;;
59880;SDS011;45751;51.380;10.326;2023-04-30T07:53:48;11.20;;;4.30;;
59880;SDS011;45751;51.380;10.326;2023-04-30T07:56:15;9.93;;;4.18;;
59880;SDS011;45751;51.380;10.326;2023-04-30T07:58:42;9.30;;;4.85;;
59880;SDS011;45751;51.380;10.326;2023-04-30T08:01:09;10.82;;;4.93;;
59880;SDS011;45751;51.380;10.326;2023-04-30T08:03:35;20.52;;;5.40;;
59880;SDS011;45751;51.380;10.326;2023-04-30T08:06:04;12.70;;;4.68;;
59880;SDS011;45751;51.380;10.326;2023-04-30T08:08:32;16.52;;;4.10;;
59880;SDS011;45751;51.380;10.326;2023-04-30T08:10:59;9.65;;;3.45;;
59880;SDS011;45751;51.380;10.326;2023-04-30T08:13:26;9.32;;;3.40;;
59880;SDS011;45751;51.380;10.326;2023-04-30T08:15:53;10.32;;;3.83;;
59880;SDS011;45751;51.380;10.326;2023-04-30T08:18:19;16.85;;;4.22;;
59880;SDS011;45751;51.380;10.326;2023-04-30T08:20:46;10.55;;;3.78;;
59880;SDS011;45751;51.380;10.326;2023-04-30T08:23:14;11.02;;;4.43;;
59880;SDS011;45751;51.380;10.326;2023-04-30T08:25:42;14.90;;;5.38;;
59880;SDS011;45751;51.380;10.326;2023-04-30T08:28:09;12.90;;;5.10;;
59880;SDS011;45751;51.380;10.326;2023-04-30T08:30:36;11.30;;;3.75;;
59880;SDS011;45751;51.380;10.326;2023-04-30T08:33:03;12.95;;;3.90;;
59880;SDS011;45751;51.380;10.326;2023-04-30T08:35:30;12.65;;;3.83;;
59880;SDS011;45751;51.380;10.326;2023-04-30T08:37:57;11.13;;;3.60;;
59880;SDS011;45751;51.380;10.326;2023-04-30T08:40:25;23.27;;;5.20;;
59880;SDS011;45751;51.380;10.326;2023-04-30T08:43:13;15.38;;;4.88;;
59880;SDS011;45751;51.380;10.326;2023-04-30T08:45:40;17.50;;;4.13;;
59880;SDS011;45751;51.380;10.326;2023-04-30T08:48:08;10.30;;;3.90;;
59880;SDS011;45751;51.380;10.326;2023-04-30T08:50:41;14.25;;;3.28;;
59880;SDS011;45751;51.380;10.326;2023-04-30T08:53:09;6.97;;;2.65;;
59880;SDS011;45751;51.380;10.326;2023-04-30T08:55:37;7.53;;;3.35;;
59880;SDS011;45751;51.380;10.326;2023-04-30T08:58:06;14.00;;;3.80;;
59880;SDS011;45751;51.380;10.326;2023-04-30T09:00:36;8.77;;;3.53;;
59880;SDS011;45751;51.380;10.326;2023-04-30T09:03:05;9.32;;;3.80;;
59880;SDS011;45751;51.380;10.326;2023-04-30T09:05:33;20.55;;;9.27;;
59880;SDS011;45751;51.380;10.326;2023-04-30T09:08:01;16.48;;;6.53;;
59880;SDS011;45751;51.380;10.326;2023-04-30T09:10:33;13.65;;;4.50;;
59880;SDS011;45751;51.380;10.326;2023-04-30T09:15:33;13.68;;;2.85;;
59880;SDS011;45751;51.380;10.326;2023-04-30T09:18:16;10.05;;;3.65;;
59880;SDS011;45751;51.380;10.326;2023-04-30T09:20:57;9.00;;;3.95;;
59880;SDS011;45751;51.380;10.326;2023-04-30T09:23:28;11.55;;;4.82;;
59880;SDS011;45751;51.380;10.326;2023-04-30T09:25:56;11.68;;;3.67;;
59880;SDS011;45751;51.380;10.326;2023-04-30T09:28:23;9.80;;;3.22;;
59880;SDS011;45751;51.380;10.326;2023-04-30T09:30:52;11.52;;;3.60;;
59880;SDS011;45751;51.380;10.326;2023-04-30T09:33:19;10.43;;;3.53;;
59880;SDS011;45751;51.380;10.326;2023-04-30T09:35:45;7.60;;;2.92;;
59880;SDS011;45751;51.380;10.326;2023-04-30T09:38:26;8.45;;;3.10;;
59880;SDS011;45751;51.380;10.326;2023-04-30T09:41:00;8.15;;;3.30;;
59880;SDS011;45751;51.380;10.326;2023-04-30T09:43:27;10.95;;;3.08;;
59880;SDS011;45751;51.380;10.326;2023-04-30T09:45:56;9.32;;;3.30;;
59880;SDS011;45751;51.380;10.326;2023-04-30T09:48:25;10.05;;;2.92;;
59880;SDS011;45751;51.380;10.326;2023-04-30T09:50:56;7.55;;;3.15;;
59880;SDS011;45751;51.380;10.326;2023-04-30T09:53:23;11.60;;;3.33;;
59880;SDS011;45751;51.380;10.326;2023-04-30T09:55:50;9.38;;;3.70;;
59880;SDS011;45751;51.380;10.326;2023-04-30T09:58:18;9.75;;;3.72;;
59880;SDS011;45751;51.380;10.326;2023-04-30T10:00:45;13.27;;;4.20;;
59880;SDS011;45751;51.380;10.326;2023-04-30T10:03:14;11.45;;;4.07;;
59880;SDS011;45751;51.380;10.326;2023-04-30T10:05:43;10.40;;;3.90;;
59880;SDS011;45751;51.380;10.326;2023-04-30T10:08:16;10.95;;;3.97;;
59880;SDS011;45751;51.380;10.326;2023-04-30T10:10:49;15.52;;;3.45;;
59880;SDS011;45751;51.380;10.326;2023-04-30T10:13:19;9.88;;;3.55;;
59880;SDS011;45751;51.380;10.326;2023-04-30T10:15:50;8.38;;;3.17;;
59880;SDS011;45751;51.380;10.326;2023-04-30T10:18:26;10.88;;;3.50;;
59880;SDS011;45751;51.380;10.326;2023-04-30T10:20:56;12.63;;;3.47;;
59880;SDS011;45751;51.380;10.326;2023-04-30T10:23:28;9.70;;;4.05;;
59880;SDS011;45751;51.380;10.326;2023-04-30T10:25:55;8.35;;;2.90;;
59880;SDS011;45751;51.380;10.326;2023-04-30T10:28:23;10.43;;;3.13;;
59880;SDS011;45751;51.380;10.326;2023-04-30T10:30:50;9.70;;;3.70;;
59880;SDS011;45751;51.380;10.326;2023-04-30T10:33:18;8.60;;;3.17;;
59880;SDS011;45751;51.380;10.326;2023-04-30T10:35:56;15.57;;;4.03;;
59880;SDS011;45751;51.380;10.326;2023-04-30T10:38:29;12.93;;;3.85;;
59880;SDS011;45751;51.380;10.326;2023-04-30T10:40:58;9.13;;;2.97;;
59880;SDS011;45751;51.380;10.326;2023-04-30T10:43:29;13.80;;;3.75;;
59880;SDS011;45751;51.380;10.326;2023-04-30T10:45:57;10.32;;;3.78;;
59880;SDS011;45751;51.380;10.326;2023-04-30T10:48:24;7.88;;;3.25;;
59880;SDS011;45751;51.380;10.326;2023-04-30T10:50:56;9.75;;;2.95;;
59880;SDS011;45751;51.380;10.326;2023-04-30T10:53:23;9.48;;;3.30;;
59880;SDS011;45751;51.380;10.326;2023-04-30T10:55:56;9.68;;;3.22;;
59880;SDS011;45751;51.380;10.326;2023-04-30T10:58:27;9.65;;;3.55;;
59880;SDS011;45751;51.380;10.326;2023-04-30T11:01:03;10.38;;;2.88;;
59880;SDS011;45751;51.380;10.326;2023-04-30T11:03:37;7.97;;;2.85;;
59880;SDS011;45751;51.380;10.326;2023-04-30T11:06:11;9.32;;;3.53;;
59880;SDS011;45751;51.380;10.326;2023-04-30T11:08:43;9.15;;;3.05;;
59880;SDS011;45751;51.380;10.326;2023-04-30T11:11:12;11.18;;;3.25;;
59880;SDS011;45751;51.380;10.326;2023-04-30T11:13:47;9.13;;;3.25;;
59880;SDS011;45751;51.380;10.326;2023-04-30T11:16:28;10.40;;;2.47;;
59880;SDS011;45751;51.380;10.326;2023-04-30T11:19:04;10.07;;;2.45;;
59880;SDS011;45751;51.380;10.326;2023-04-30T11:21:41;8.07;;;3.28;;
59880;SDS011;45751;51.380;10.326;2023-04-30T11:27:23;11.00;;;3.35;;
59880;SDS011;45751;51.380;10.326;2023-04-30T11:29:57;8.10;;;3.13;;
59880;SDS011;45751;51.380;10.326;2023-04-30T11:32:25;9.02;;;3.17;;
59880;SDS011;45751;51.380;10.326;2023-04-30T11:34:57;9.45;;;2.58;;
59880;SDS011;45751;51.380;10.326;2023-04-30T11:40:02;10.23;;;2.95;;
59880;SDS011;45751;51.380;10.326;2023-04-30T11:42:31;8.63;;;3.13;;
59880;SDS011;45751;51.380;10.326;2023-04-30T11:45:07;8.90;;;2.72;;
59880;SDS011;45751;51.380;10.326;2023-04-30T11:50:14;7.88;;;2.80;;
59880;SDS011;45751;51.380;10.326;2023-04-30T11:52:47;8.77;;;3.15;;
59880;SDS011;45751;51.380;10.326;2023-04-30T11:55:17;10.88;;;3.28;;
59880;SDS011;45751;51.380;10.326;2023-04-30T11:57:47;11.43;;;3.25;;
59880;SDS011;45751;51.380;10.326;2023-04-30T12:00:18;11.52;;;3.20;;
59880;SDS011;45751;51.380;10.326;2023-04-30T12:02:47;8.00;;;2.28;;
59880;SDS011;45751;51.380;10.326;2023-04-30T12:05:19;8.70;;;2.80;;
59880;SDS011;45751;51.380;10.326;2023-04-30T12:07:54;8.55;;;3.05;;
59880;SDS011;45751;51.380;10.326;2023-04-30T12:10:23;12.57;;;3.88;;
59880;SDS011;45751;51.380;10.326;2023-04-30T12:12:51;13.55;;;4.68;;
59880;SDS011;45751;51.380;10.326;2023-04-30T12:15:22;13.95;;;4.85;;
59880;SDS011;45751;51.380;10.326;2023-04-30T12:17:57;9.57;;;3.70;;
59880;SDS011;45751;51.380;10.326;2023-04-30T12:20:25;11.43;;;3.45;;
59880;SDS011;45751;51.380;10.326;2023-04-30T12:22:54;9.40;;;3.40;;
59880;SDS011;45751;51.380;10.326;2023-04-30T12:25:22;8.88;;;3.45;;
59880;SDS011;45751;51.380;10.326;2023-04-30T12:27:50;12.38;;;3.60;;
59880;SDS011;45751;51.380;10.326;2023-04-30T12:30:19;12.90;;;4.10;;
59880;SDS011;45751;51.380;10.326;2023-04-30T12:32:50;10.13;;;3.63;;
59880;SDS011;45751;51.380;10.326;2023-04-30T12:35:19;11.57;;;3.13;;
59880;SDS011;45751;51.380;10.326;2023-04-30T12:37:48;13.48;;;4.43;;
59880;SDS011;45751;51.380;10.326;2023-04-30T12:40:18;11.57;;;4.00;;
59880;SDS011;45751;51.380;10.326;2023-04-30T12:42:46;20.88;;;5.65;;
59880;SDS011;45751;51.380;10.326;2023-04-30T12:48:12;15.00;;;3.75;;
59880;SDS011;45751;51.380;10.326;2023-04-30T12:50:40;8.00;;;3.40;;
59880;SDS011;45751;51.380;10.326;2023-04-30T12:53:08;9.25;;;3.28;;
59880;SDS011;45751;51.380;10.326;2023-04-30T12:55:35;8.93;;;3.25;;
59880;SDS011;45751;51.380;10.326;2023-04-30T12:58:03;10.02;;;3.33;;
59880;SDS011;45751;51.380;10.326;2023-04-30T13:03:13;9.38;;;3.70;;
59880;SDS011;45751;51.380;10.326;2023-04-30T13:05:45;11.88;;;3.95;;
59880;SDS011;45751;51.380;10.326;2023-04-30T13:08:13;8.88;;;3.55;;
59880;SDS011;45751;51.380;10.326;2023-04-30T13:10:40;9.60;;;3.15;;
59880;SDS011;45751;51.380;10.326;2023-04-30T13:13:07;15.27;;;3.67;;
59880;SDS011;45751;51.380;10.326;2023-04-30T13:15:35;12.77;;;3.47;;
59880;SDS011;45751;51.380;10.326;2023-04-30T13:18:02;10.75;;;3.47;;
59880;SDS011;45751;51.380;10.326;2023-04-30T13:20:29;7.75;;;2.92;;
59880;SDS011;45751;51.380;10.326;2023-04-30T13:22:58;10.15;;;3.15;;
59880;SDS011;45751;51.380;10.326;2023-04-30T13:25:25;16.65;;;3.85;;
59880;SDS011;45751;51.380;10.326;2023-04-30T13:27:53;9.23;;;3.63;;
59880;SDS011;45751;51.380;10.326;2023-04-30T13:30:21;10.93;;;3.58;;
59880;SDS011;45751;51.380;10.326;2023-04-30T13:32:49;10.00;;;3.85;;
59880;SDS011;45751;51.380;10.326;2023-04-30T13:35:18;14.70;;;7.07;;
59880;SDS011;45751;51.380;10.326;2023-04-30T13:37:45;13.98;;;6.70;;
59880;SDS011;45751;51.380;10.326;2023-04-30T13:40:18;13.27;;;4.30;;
59880;SDS011;45751;51.380;10.326;2023-04-30T13:42:46;9.00;;;3.53;;
59880;SDS011;45751;51.380;10.326;2023-04-30T13:45:14;10.27;;;3.40;;
59880;SDS011;45751;51.380;10.326;2023-04-30T13:47:42;10.23;;;3.45;;
59880;SDS011;45751;51.380;10.326;2023-04-30T13:50:09;10.65;;;3.20;;
59880;SDS011;45751;51.380;10.326;2023-04-30T13:52:37;9.27;;;3.97;;
59880;SDS011;45751;51.380;10.326;2023-04-30T13:55:04;11.00;;;3.85;;
59880;SDS011;45751;51.380;10.326;2023-04-30T13:57:33;12.02;;;3.97;;
59880;SDS011;45751;51.380;10.326;2023-04-30T14:00:01;8.50;;;3.47;;
59880;SDS011;45751;51.380;10.326;2023-04-30T14:02:33;10.65;;;3.58;;
59880;SDS011;45751;51.380;10.326;2023-04-30T14:05:01;11.38;;;3.53;;
59880;SDS011;45751;51.380;10.326;2023-04-30T14:07:32;8.80;;;3.30;;
59880;SDS011;45751;51.380;10.326;2023-04-30T14:09:59;10.35;;;3.45;;
59880;SDS011;45751;51.380;10.326;2023-04-30T14:12:26;8.23;;;2.97;;
59880;SDS011;45751;51.380;10.326;2023-04-30T14:14:56;10.00;;;3.20;;
59880;SDS011;45751;51.380;10.326;2023-04-30T14:17:23;8.55;;;3.38;;
59880;SDS011;45751;51.380;10.326;2023-04-30T14:19:56;7.95;;;3.05;;
59880;SDS011;45751;51.380;10.326;2023-04-30T14:22:23;9.63;;;3.97;;
59880;SDS011;45751;51.380;10.326;2023-04-30T14:24:51;9.05;;;3.38;;
59880;SDS011;45751;51.380;10.326;2023-04-30T14:27:18;8.93;;;3.10;;
59880;SDS011;45751;51.380;10.326;2023-04-30T14:29:46;9.40;;;3.45;;
59880;SDS011;45751;51.380;10.326;2023-04-30T14:32:13;9.13;;;3.28;;
59880;SDS011;45751;51.380;10.326;2023-04-30T14:34:40;14.73;;;4.28;;
59880;SDS011;45751;51.380;10.326;2023-04-30T14:37:07;13.70;;;4.80;;
59880;SDS011;45751;51.380;10.326;2023-04-30T14:39:34;9.25;;;3.47;;
59880;SDS011;45751;51.380;10.326;2023-04-30T14:42:00;8.57;;;3.53;;
59880;SDS011;45751;51.380;10.326;2023-04-30T14:44:28;9.07;;;2.63;;
59880;SDS011;45751;51.380;10.326;2023-04-30T14:46:55;8.23;;;2.83;;
59880;SDS011;45751;51.380;10.326;2023-04-30T14:49:22;9.70;;;3.13;;
59880;SDS011;45751;51.380;10.326;2023-04-30T14:51:49;7.03;;;2.60;;
59880;SDS011;45751;51.380;10.326;2023-04-30T14:54:16;7.82;;;2.80;;
59880;SDS011;45751;51.380;10.326;2023-04-30T14:56:43;11.98;;;3.70;;
59880;SDS011;45751;51.380;10.326;2023-04-30T14:59:10;9.48;;;3.22;;
59880;SDS011;45751;51.380;10.326;2023-04-30T15:01:38;10.52;;;3.55;;
59880;SDS011;45751;51.380;10.326;2023-04-30T15:04:05;10.48;;;3.50;;
59880;SDS011;45751;51.380;10.326;2023-04-30T15:06:32;8.57;;;3.70;;
59880;SDS011;45751;51.380;10.326;2023-04-30T15:08:59;9.05;;;3.20;;
59880;SDS011;45751;51.380;10.326;2023-04-30T15:11:26;9.68;;;3.70;;